createdAt,value
2018-04-29T00:01:21.562Z,52.90
2018-04-29T00:03:49.155Z,52.90
2018-04-29T00:06:16.778Z,53.00
2018-04-29T00:08:44.379Z,53.00
2018-04-29T00:11:12.018Z,53.00
2018-04-29T00:13:39.605Z,53.00
2018-04-29T00:16:07.221Z,53.00
2018-04-29T00:18:34.822Z,53.00
2018-04-29T00:21:02.454Z,53.10
2018-04-29T00:23:30.051Z,53.10
2018-04-29T00:25:57.686Z,53.10
2018-04-29T00:28:25.286Z,53.10
2018-04-29T00:30:52.910Z,53.20
2018-04-29T00:33:20.506Z,53.30
2018-04-29T00:35:48.925Z,53.30
2018-04-29T00:38:16.614Z,53.30
2018-04-29T00:40:44.231Z,53.30
2018-04-29T00:43:12.590Z,53.40
2018-04-29T00:45:40.218Z,53.40
2018-04-29T00:48:07.801Z,53.40
2018-04-29T00:50:35.422Z,53.40
2018-04-29T00:53:03.030Z,53.40
2018-04-29T00:55:31.419Z,53.60
2018-04-29T00:57:59.014Z,53.50
2018-04-29T01:00:26.610Z,53.60
2018-04-29T01:02:54.243Z,53.60
2018-04-29T01:05:21.834Z,53.60
2018-04-29T01:07:49.460Z,53.70
2018-04-29T01:10:17.054Z,53.70
2018-04-29T01:12:44.680Z,53.70
2018-04-29T01:15:12.269Z,53.80
2018-04-29T01:17:39.862Z,53.90
2018-04-29T01:20:08.991Z,54.00
2018-04-29T01:22:36.587Z,54.00
2018-04-29T01:25:04.199Z,53.90
2018-04-29T01:27:32.568Z,54.00
2018-04-29T01:30:00.958Z,53.90
2018-04-29T01:32:29.317Z,54.10
2018-04-29T01:34:56.915Z,54.10
2018-04-29T01:37:24.546Z,54.60
2018-04-29T01:39:52.927Z,54.30
2018-04-29T01:42:21.330Z,54.40
2018-04-29T01:44:48.926Z,54.30
2018-04-29T01:47:17.067Z,54.50
2018-04-29T01:49:44.668Z,54.50
2018-04-29T01:52:12.293Z,54.50
2018-04-29T01:54:39.886Z,54.40
2018-04-29T01:57:07.511Z,54.40
2018-04-29T01:59:35.112Z,54.40
2018-04-29T02:02:02.746Z,54.40
2018-04-29T02:04:30.342Z,54.50
2018-04-29T02:06:57.973Z,54.50
2018-04-29T02:09:25.566Z,54.70
2018-04-29T02:11:53.192Z,54.70
2018-04-29T02:14:20.796Z,54.60
2018-04-29T02:16:48.418Z,54.60
2018-04-29T02:19:16.011Z,54.60
2018-04-29T02:21:43.642Z,54.70
2018-04-29T02:24:11.236Z,54.80
2018-04-29T02:26:38.845Z,54.80
2018-04-29T02:29:06.466Z,54.80
2018-04-29T02:31:34.832Z,55.20
2018-04-29T02:34:03.222Z,54.80
2018-04-29T02:36:30.823Z,54.70
2018-04-29T02:38:58.441Z,55.30
2018-04-29T02:41:26.043Z,54.80
2018-04-29T02:43:53.662Z,54.80
2018-04-29T02:46:21.246Z,54.80
2018-04-29T02:48:49.634Z,54.90
2018-04-29T02:51:17.230Z,54.90
2018-04-29T02:53:44.857Z,54.80
2018-04-29T02:56:12.462Z,55.00
2018-04-29T02:58:40.087Z,55.00
2018-04-29T03:01:07.677Z,55.10
2018-04-29T03:03:35.290Z,55.10
2018-04-29T03:06:03.650Z,55.10
2018-04-29T03:08:31.275Z,55.10
2018-04-29T03:10:58.867Z,55.10
2018-04-29T03:13:26.498Z,55.10
2018-04-29T03:15:54.548Z,55.10
2018-04-29T03:18:22.146Z,55.10
2018-04-29T03:20:49.770Z,55.10
2018-04-29T03:23:17.374Z,55.20
2018-04-29T03:25:44.989Z,55.30
2018-04-29T03:28:12.586Z,55.30
2018-04-29T03:30:40.206Z,55.50
2018-04-29T03:33:07.818Z,55.60
2018-04-29T03:35:35.438Z,55.80
2018-04-29T03:38:03.032Z,55.90
2018-04-29T03:40:30.657Z,56.00
2018-04-29T03:42:58.253Z,55.90
2018-04-29T03:45:25.876Z,56.00
2018-04-29T03:47:53.466Z,56.00
2018-04-29T03:50:21.082Z,55.80
2018-04-29T03:52:48.678Z,55.80
2018-04-29T03:55:16.293Z,55.70
2018-04-29T03:57:56.654Z,55.50
2018-04-29T04:00:36.971Z,55.60
2018-04-29T04:03:16.578Z,55.60
2018-04-29T04:05:44.204Z,55.40
2018-04-29T04:08:12.567Z,55.90
2018-04-29T04:10:40.182Z,55.40
2018-04-29T04:13:07.784Z,55.40
2018-04-29T04:15:35.407Z,55.50
2018-04-29T04:18:03.007Z,55.40
2018-04-29T04:20:30.739Z,55.50
2018-04-29T04:22:58.337Z,55.60
2018-04-29T04:25:25.939Z,55.50
2018-04-29T04:27:53.559Z,56.10
2018-04-29T04:30:21.150Z,55.50
2018-04-29T04:32:48.774Z,55.60
2018-04-29T04:35:16.375Z,55.60
2018-04-29T04:37:44.003Z,55.70
2018-04-29T04:40:11.596Z,56.00
2018-04-29T04:42:39.195Z,56.10
2018-04-29T04:45:06.813Z,56.10
2018-04-29T04:47:34.419Z,56.20
2018-04-29T04:50:02.042Z,56.10
2018-04-29T04:52:29.651Z,56.10
2018-04-29T04:54:57.279Z,56.20
2018-04-29T04:57:24.870Z,56.20
2018-04-29T04:59:52.491Z,56.40
2018-04-29T05:02:20.086Z,56.40
2018-04-29T05:04:47.709Z,56.50
2018-04-29T05:07:15.331Z,56.60
2018-04-29T05:09:42.962Z,56.70
2018-04-29T05:12:10.554Z,56.70
2018-04-29T05:14:38.942Z,56.90
2018-04-29T05:17:07.302Z,56.80
2018-04-29T05:19:34.899Z,56.70
2018-04-29T05:22:02.513Z,56.90
2018-04-29T05:24:30.102Z,57.20
2018-04-29T05:26:58.488Z,57.40
2018-04-29T05:29:26.857Z,57.60
2018-04-29T05:31:55.254Z,57.60
2018-04-29T05:34:22.855Z,57.60
2018-04-29T05:36:50.445Z,57.90
2018-04-29T05:39:18.277Z,59.20
2018-04-29T05:41:45.888Z,59.10
2018-04-29T05:44:14.422Z,59.40
2018-04-29T05:46:42.035Z,59.40
2018-04-29T05:49:10.397Z,60.00
2018-04-29T05:51:38.789Z,60.20
2018-04-29T05:54:07.165Z,60.40
2018-04-29T05:56:35.566Z,60.40
2018-04-29T05:59:03.159Z,60.30
2018-04-29T06:01:30.782Z,60.30
2018-04-29T06:03:59.129Z,60.60
2018-04-29T06:06:26.830Z,60.50
2018-04-29T06:08:54.392Z,61.30
2018-04-29T06:11:22.024Z,61.00
2018-04-29T06:13:50.388Z,59.80
2018-04-29T06:16:19.628Z,59.60
2018-04-29T06:18:47.238Z,59.60
2018-04-29T06:21:14.854Z,59.60
2018-04-29T06:23:42.459Z,59.40
2018-04-29T06:26:10.164Z,60.00
2018-04-29T06:28:37.720Z,59.10
2018-04-29T06:31:06.108Z,58.90
2018-04-29T06:33:33.709Z,58.80
2018-04-29T06:36:01.326Z,59.20
2018-04-29T06:38:29.689Z,57.90
2018-04-29T06:40:58.068Z,57.70
2018-04-29T06:43:26.436Z,58.40
2018-04-29T06:45:54.055Z,58.20
2018-04-29T06:48:21.655Z,57.00
2018-04-29T06:50:50.054Z,57.20
2018-04-29T06:53:18.414Z,56.10
2018-04-29T06:55:46.007Z,56.00
2018-04-29T06:58:13.632Z,55.60
2018-04-29T07:00:41.250Z,56.30
2018-04-29T07:03:08.882Z,55.80
2018-04-29T07:05:37.242Z,54.10
2018-04-29T07:08:04.834Z,54.10
2018-04-29T07:10:32.449Z,54.20
2018-04-29T07:13:00.935Z,53.90
2018-04-29T07:15:28.554Z,53.90
2018-04-29T07:17:56.150Z,54.60
2018-04-29T07:20:23.769Z,53.90
2018-04-29T07:22:51.375Z,53.50
2018-04-29T07:25:18.974Z,53.30
2018-04-29T07:27:46.678Z,52.60
2018-04-29T07:30:15.037Z,53.20
2018-04-29T07:32:42.658Z,53.10
2018-04-29T07:35:11.014Z,53.80
2018-04-29T07:37:38.617Z,53.70
2018-04-29T07:40:06.257Z,53.20
2018-04-29T07:42:33.869Z,52.70
2018-04-29T07:45:01.488Z,52.60
2018-04-29T07:47:29.850Z,51.50
2018-04-29T07:49:57.436Z,51.40
2018-04-29T07:52:25.160Z,51.50
2018-04-29T07:54:53.442Z,50.50
2018-04-29T07:57:21.065Z,50.50
2018-04-29T07:59:48.651Z,49.60
2018-04-29T08:02:16.278Z,50.50
2018-04-29T08:04:43.865Z,50.60
2018-04-29T08:07:11.454Z,50.80
2018-04-29T08:09:39.158Z,49.90
2018-04-29T08:12:06.746Z,49.60
2018-04-29T08:14:34.374Z,49.90
2018-04-29T08:17:01.968Z,49.80
2018-04-29T08:19:29.576Z,49.90
2018-04-29T08:21:57.954Z,49.50
2018-04-29T08:24:26.306Z,49.80
2018-04-29T08:26:53.935Z,49.70
2018-04-29T08:29:21.590Z,48.90
2018-04-29T08:31:49.169Z,48.40
2018-04-29T08:34:16.778Z,48.70
2018-04-29T08:36:45.138Z,47.90
2018-04-29T08:39:13.514Z,46.50
2018-04-29T08:41:41.101Z,47.00
2018-04-29T08:44:08.709Z,48.00
2018-04-29T08:46:36.294Z,48.60
2018-04-29T08:49:03.908Z,47.50
2018-04-29T08:51:31.497Z,46.90
2018-04-29T08:53:59.115Z,46.50
2018-04-29T08:56:26.697Z,45.90
2018-04-29T08:58:54.308Z,46.40
2018-04-29T09:01:22.658Z,45.90
2018-04-29T09:03:50.318Z,45.90
2018-04-29T09:06:17.922Z,46.30
2018-04-29T09:08:46.279Z,45.50
2018-04-29T09:11:13.897Z,45.40
2018-04-29T09:13:41.491Z,46.00
2018-04-29T09:16:09.165Z,45.50
2018-04-29T09:18:36.719Z,44.40
2018-04-29T09:21:04.329Z,44.00
2018-04-29T09:23:31.916Z,44.10
2018-04-29T09:25:59.525Z,45.40
2018-04-29T09:28:27.875Z,42.60
2018-04-29T09:30:55.494Z,42.60
2018-04-29T09:33:23.077Z,42.80
2018-04-29T09:35:50.699Z,42.50
2018-04-29T09:38:18.290Z,42.80
2018-04-29T09:40:45.934Z,41.30
2018-04-29T09:43:13.530Z,42.50
2018-04-29T09:45:41.141Z,42.10
2018-04-29T09:48:08.731Z,42.80
2018-04-29T09:50:36.391Z,41.60
2018-04-29T09:53:04.173Z,42.00
2018-04-29T09:55:34.051Z,41.40
2018-04-29T09:58:02.050Z,41.10
2018-04-29T10:00:29.920Z,41.20
2018-04-29T10:03:03.392Z,41.70
2018-04-29T10:05:32.001Z,42.60
2018-04-29T10:07:59.967Z,42.50
2018-04-29T10:10:27.794Z,41.10
2018-04-29T10:12:55.701Z,40.90
2018-04-29T10:15:23.575Z,40.60
2018-04-29T10:17:51.439Z,40.40
2018-04-29T10:20:19.257Z,40.10
2018-04-29T10:22:47.187Z,40.90
2018-04-29T10:25:15.852Z,40.00
2018-04-29T10:27:43.729Z,40.00
2018-04-29T10:30:11.402Z,40.20
2018-04-29T10:32:39.124Z,38.80
2018-04-29T10:35:06.843Z,39.90
2018-04-29T10:37:35.278Z,38.70
2018-04-29T10:40:02.913Z,38.60
2018-04-29T10:42:30.635Z,38.00
2018-04-29T10:44:58.267Z,38.30
2018-04-29T10:47:25.987Z,38.40
2018-04-29T10:49:53.667Z,38.10
2018-04-29T10:52:21.399Z,39.30
2018-04-29T10:54:49.034Z,39.00
2018-04-29T10:57:16.641Z,39.10
2018-04-29T10:59:44.320Z,38.60
2018-04-29T11:02:12.031Z,38.80
2018-04-29T11:04:39.987Z,38.60
2018-04-29T11:07:07.852Z,37.60
2018-04-29T11:09:35.503Z,38.20
2018-04-29T11:12:03.287Z,38.40
2018-04-29T11:14:31.462Z,38.20
2018-04-29T11:16:59.301Z,37.70
2018-04-29T11:19:27.088Z,38.10
2018-04-29T11:21:54.946Z,38.50
2018-04-29T11:24:22.617Z,38.30
2018-04-29T11:26:50.402Z,38.70
2018-04-29T11:29:18.163Z,38.70
2018-04-29T11:31:45.896Z,38.90
2018-04-29T11:34:13.774Z,39.30
2018-04-29T11:36:41.633Z,40.20
2018-04-29T11:39:09.404Z,39.60
2018-04-29T11:41:37.269Z,40.20
2018-04-29T11:44:04.963Z,39.70
2018-04-29T11:46:33.462Z,39.60
2018-04-29T11:49:01.173Z,39.50
2018-04-29T11:51:28.953Z,39.00
2018-04-29T11:53:56.626Z,38.60
2018-04-29T11:56:24.249Z,38.60
2018-04-29T11:58:51.932Z,38.60
2018-04-29T12:01:19.791Z,38.90
2018-04-29T12:03:47.452Z,38.90
2018-04-29T12:06:15.239Z,39.90
2018-04-29T12:08:42.868Z,39.40
2018-04-29T12:11:10.642Z,39.10
2018-04-29T12:13:38.407Z,38.00
2018-04-29T12:16:06.176Z,37.70
2018-04-29T12:18:33.824Z,38.80
2018-04-29T12:21:01.482Z,38.80
2018-04-29T12:23:29.260Z,38.70
2018-04-29T12:25:56.953Z,38.60
2018-04-29T12:28:25.362Z,38.70
2018-04-29T12:30:53.025Z,38.20
2018-04-29T12:33:20.739Z,38.90
2018-04-29T12:35:48.599Z,38.80
2018-04-29T12:38:16.278Z,38.50
2018-04-29T12:40:44.006Z,38.50
2018-04-29T12:43:11.791Z,38.10
2018-04-29T12:45:39.557Z,38.70
2018-04-29T12:48:07.984Z,37.90
2018-04-29T12:50:35.622Z,38.00
2018-04-29T12:53:04.122Z,38.00
2018-04-29T12:55:32.538Z,38.30
2018-04-29T12:58:00.407Z,38.30
2018-04-29T13:00:28.180Z,38.00
2018-04-29T13:02:55.907Z,39.30
2018-04-29T13:05:23.703Z,38.80
2018-04-29T13:07:51.386Z,39.20
2018-04-29T13:10:19.005Z,39.60
2018-04-29T13:12:46.803Z,39.00
2018-04-29T13:15:14.483Z,38.40
2018-04-29T13:17:42.259Z,38.30
2018-04-29T13:20:10.712Z,38.20
2018-04-29T13:22:38.471Z,38.10
2018-04-29T13:25:06.179Z,38.80
2018-04-29T13:27:34.590Z,38.30
2018-04-29T13:30:02.288Z,38.20
2018-04-29T13:32:30.785Z,38.00
2018-04-29T13:34:58.424Z,38.00
2018-04-29T13:37:26.188Z,38.00
2018-04-29T13:39:54.053Z,36.70
2018-04-29T13:42:21.879Z,37.40
2018-04-29T13:44:49.566Z,37.60
2018-04-29T13:47:17.218Z,37.00
2018-04-29T13:49:45.000Z,38.50
2018-04-29T13:52:12.835Z,37.90
2018-04-29T13:54:41.266Z,38.00
2018-04-29T13:57:08.907Z,37.90
2018-04-29T13:59:36.682Z,37.60
2018-04-29T14:02:04.419Z,38.10
2018-04-29T14:04:32.220Z,37.20
2018-04-29T14:06:59.962Z,37.80
2018-04-29T14:09:27.618Z,36.90
2018-04-29T14:11:55.383Z,36.60
2018-04-29T14:14:23.172Z,36.80
2018-04-29T14:16:51.642Z,37.30
2018-04-29T14:19:19.439Z,37.20
2018-04-29T14:21:47.991Z,36.90
2018-04-29T14:24:15.642Z,36.80
2018-04-29T14:26:43.330Z,37.20
2018-04-29T14:29:10.949Z,38.50
2018-04-29T14:31:38.724Z,39.20
2018-04-29T14:34:06.500Z,39.10
2018-04-29T14:36:34.196Z,39.00
2018-04-29T14:39:01.947Z,39.20
2018-04-29T14:41:29.684Z,38.90
2018-04-29T14:43:57.339Z,37.60
2018-04-29T14:46:25.120Z,37.00
2018-04-29T14:48:52.777Z,38.20
2018-04-29T14:51:20.415Z,39.20
2018-04-29T14:53:48.109Z,39.20
2018-04-29T14:56:15.879Z,40.30
2018-04-29T14:58:43.540Z,40.20
2018-04-29T15:01:11.326Z,39.00
2018-04-29T15:03:38.946Z,38.90
2018-04-29T15:06:06.719Z,39.00
2018-04-29T15:08:34.374Z,39.50
2018-04-29T15:11:02.181Z,40.10
2018-04-29T15:13:30.632Z,39.60
2018-04-29T15:15:58.346Z,39.60
2018-04-29T15:18:37.958Z,40.00
2018-04-29T15:21:06.415Z,39.90
2018-04-29T15:23:34.190Z,39.90
2018-04-29T15:26:01.880Z,40.20
2018-04-29T15:28:30.251Z,41.80
2018-04-29T15:30:57.951Z,42.30
2018-04-29T15:33:25.582Z,41.40
2018-04-29T15:35:53.291Z,41.50
2018-04-29T15:38:20.900Z,41.50
2018-04-29T15:40:49.336Z,40.40
2018-04-29T15:43:16.959Z,40.40
2018-04-29T15:45:45.461Z,40.70
2018-04-29T15:48:13.109Z,40.80
2018-04-29T15:50:40.782Z,41.70
2018-04-29T15:53:08.431Z,41.10
2018-04-29T15:55:36.145Z,41.40
2018-04-29T15:58:03.888Z,42.10
2018-04-29T16:00:31.590Z,42.20
2018-04-29T16:03:00.289Z,42.10
2018-04-29T16:05:28.695Z,42.30
2018-04-29T16:07:56.394Z,42.20
2018-04-29T16:10:24.180Z,41.40
2018-04-29T16:12:51.967Z,41.40
2018-04-29T16:15:20.485Z,42.10
2018-04-29T16:17:48.102Z,42.10
2018-04-29T16:20:16.463Z,41.60
2018-04-29T16:22:44.078Z,41.60
2018-04-29T16:25:11.670Z,41.80
2018-04-29T16:27:39.307Z,41.80
2018-04-29T16:30:06.894Z,42.00
2018-04-29T16:32:34.530Z,42.00
2018-04-29T16:35:02.119Z,42.00
2018-04-29T16:37:29.987Z,42.20
2018-04-29T16:39:57.585Z,42.30
2018-04-29T16:42:25.967Z,42.60
2018-04-29T16:44:54.335Z,42.40
2018-04-29T16:47:22.717Z,42.30
2018-04-29T16:49:51.071Z,42.40
2018-04-29T16:52:18.700Z,42.30
2018-04-29T16:54:46.287Z,42.40
2018-04-29T16:57:14.520Z,42.50
2018-04-29T16:59:42.134Z,42.10
2018-04-29T17:02:09.746Z,42.20
2018-04-29T17:04:37.338Z,42.00
2018-04-29T17:07:04.954Z,42.10
2018-04-29T17:09:32.567Z,42.30
2018-04-29T17:12:00.158Z,42.60
2018-04-29T17:14:28.537Z,43.30
2018-04-29T17:16:56.904Z,42.90
2018-04-29T17:19:25.307Z,42.90
2018-04-29T17:21:52.908Z,42.90
2018-04-29T17:24:20.541Z,43.80
2018-04-29T17:26:48.768Z,44.20
2018-04-29T17:29:16.795Z,45.20
2018-04-29T17:31:44.360Z,45.50
2018-04-29T17:34:12.557Z,46.00
2018-04-29T17:36:40.243Z,46.50
2018-04-29T17:39:08.639Z,47.50
2018-04-29T17:41:36.259Z,47.40
2018-04-29T17:44:03.901Z,47.50
2018-04-29T17:46:31.509Z,47.40
2018-04-29T17:48:59.896Z,47.40
2018-04-29T17:51:28.321Z,46.90
2018-04-29T17:53:55.935Z,46.80
2018-04-29T17:56:24.475Z,46.80
2018-04-29T17:58:52.096Z,46.80
2018-04-29T18:01:19.768Z,46.80
2018-04-29T18:03:47.346Z,47.00
2018-04-29T18:06:14.943Z,47.30
2018-04-29T18:08:42.557Z,46.90
2018-04-29T18:11:10.150Z,47.00
2018-04-29T18:13:37.915Z,46.70
2018-04-29T18:16:05.507Z,46.90
2018-04-29T18:18:33.897Z,46.80
2018-04-29T18:21:01.519Z,46.80
2018-04-29T18:23:29.143Z,46.70
2018-04-29T18:25:56.726Z,46.80
2018-04-29T18:28:24.342Z,46.60
2018-04-29T18:30:51.930Z,46.50
2018-04-29T18:33:19.513Z,46.30
2018-04-29T18:35:47.130Z,46.20
2018-04-29T18:38:14.716Z,46.40
2018-04-29T18:40:42.348Z,46.70
2018-04-29T18:43:09.934Z,46.70
2018-04-29T18:45:37.550Z,46.90
2018-04-29T18:48:05.906Z,46.70
2018-04-29T18:50:34.315Z,46.60
2018-04-29T18:53:01.927Z,46.50
2018-04-29T18:55:29.517Z,46.50
2018-04-29T18:57:57.139Z,46.80
2018-04-29T19:00:24.738Z,47.80
2018-04-29T19:02:53.132Z,48.60
2018-04-29T19:05:21.490Z,48.80
2018-04-29T19:07:49.088Z,48.70
2018-04-29T19:10:16.711Z,48.70
2018-04-29T19:12:44.304Z,49.00
2018-04-29T19:15:11.954Z,49.00
2018-04-29T19:17:40.311Z,49.40
2018-04-29T19:20:09.440Z,49.50
2018-04-29T19:22:37.799Z,49.80
2018-04-29T19:25:06.165Z,49.80
2018-04-29T19:27:34.555Z,50.10
2018-04-29T19:30:02.933Z,50.20
2018-04-29T19:32:30.552Z,50.10
2018-04-29T19:34:58.150Z,50.10
2018-04-29T19:37:25.791Z,50.30
2018-04-29T19:39:53.386Z,50.60
2018-04-29T19:42:21.774Z,50.80
2018-04-29T19:44:50.144Z,51.30
2018-04-29T19:47:18.530Z,51.00
2018-04-29T19:49:46.977Z,51.00
2018-04-29T19:52:14.546Z,51.00
2018-04-29T19:54:42.906Z,51.60
2018-04-29T19:57:10.536Z,51.50
2018-04-29T19:59:38.137Z,51.70
2018-04-29T20:02:06.537Z,52.00
2018-04-29T20:04:34.914Z,52.20
2018-04-29T20:07:03.305Z,52.50
2018-04-29T20:09:31.706Z,52.80
2018-04-29T20:11:59.323Z,52.80
2018-04-29T20:14:26.950Z,53.30
2018-04-29T20:16:54.586Z,52.70
2018-04-29T20:19:22.185Z,53.00
2018-04-29T20:21:49.786Z,52.80
2018-04-29T20:24:18.170Z,52.90
2018-04-29T20:26:46.576Z,53.00
2018-04-29T20:29:14.161Z,52.90
2018-04-29T20:31:41.758Z,53.10
2018-04-29T20:34:10.192Z,53.00
2018-04-29T20:36:37.977Z,52.90
2018-04-29T20:39:05.834Z,53.20
2018-04-29T20:41:33.608Z,53.40
2018-04-29T20:44:01.479Z,53.40
2018-04-29T20:46:29.292Z,53.30
2018-04-29T20:48:57.210Z,53.50
2018-04-29T20:51:25.072Z,53.40
2018-04-29T20:53:52.837Z,53.50
2018-04-29T20:56:20.669Z,53.60
2018-04-29T20:58:48.466Z,53.40
2018-04-29T21:01:16.645Z,53.40
2018-04-29T21:03:44.509Z,53.40
2018-04-29T21:06:12.382Z,53.30
2018-04-29T21:08:40.246Z,53.50
2018-04-29T21:11:08.108Z,53.50
2018-04-29T21:13:36.038Z,53.50
2018-04-29T21:16:04.395Z,53.30
2018-04-29T21:18:32.750Z,53.30
2018-04-29T21:21:00.371Z,53.20
2018-04-29T21:23:27.957Z,53.60
2018-04-29T21:25:55.578Z,53.10
2018-04-29T21:28:23.180Z,53.20
2018-04-29T21:30:50.790Z,53.10
2018-04-29T21:33:18.374Z,52.90
2018-04-29T21:35:45.994Z,53.00
2018-04-29T21:38:14.359Z,53.20
2018-04-29T21:40:41.982Z,53.10
2018-04-29T21:43:09.569Z,53.00
2018-04-29T21:45:37.183Z,53.20
2018-04-29T21:48:04.778Z,52.80
2018-04-29T21:50:32.398Z,53.10
2018-04-29T21:52:59.983Z,53.20
2018-04-29T21:55:27.605Z,53.40
2018-04-29T21:57:55.961Z,53.20
2018-04-29T22:00:23.580Z,53.20
2018-04-29T22:02:51.166Z,53.50
2018-04-29T22:05:18.787Z,53.60
2018-04-29T22:07:46.379Z,53.50
2018-04-29T22:10:13.990Z,53.80
2018-04-29T22:12:41.574Z,53.50
2018-04-29T22:15:09.190Z,53.50
2018-04-29T22:17:37.550Z,54.50
2018-04-29T22:20:05.157Z,53.80
2018-04-29T22:22:32.856Z,54.00
2018-04-29T22:25:00.469Z,53.80
2018-04-29T22:27:28.819Z,53.90
2018-04-29T22:29:56.430Z,53.80
2018-04-29T22:32:24.018Z,54.00
2018-04-29T22:34:51.635Z,54.00
2018-04-29T22:37:19.302Z,54.10
2018-04-29T22:39:46.874Z,54.00
2018-04-29T22:42:14.461Z,54.00
2018-04-29T22:44:42.070Z,54.00
2018-04-29T22:47:10.426Z,54.20
2018-04-29T22:49:38.046Z,54.00
2018-04-29T22:52:05.643Z,54.00
2018-04-29T22:54:33.258Z,54.00
2018-04-29T22:57:00.859Z,54.20
2018-04-29T22:59:28.486Z,54.20
2018-04-29T23:01:56.078Z,54.30
2018-04-29T23:04:23.674Z,54.40
2018-04-29T23:06:52.055Z,54.10
2018-04-29T23:09:20.419Z,54.10
2018-04-29T23:11:48.041Z,54.00
2018-04-29T23:14:15.631Z,54.10
2018-04-29T23:16:44.011Z,54.30
2018-04-29T23:19:11.598Z,54.30
2018-04-29T23:21:39.216Z,54.20
2018-04-29T23:24:06.803Z,54.00
2018-04-29T23:26:35.179Z,53.90
2018-04-29T23:29:03.549Z,54.20
2018-04-29T23:31:31.912Z,54.10
2018-04-29T23:33:59.534Z,54.00
2018-04-29T23:36:27.160Z,54.20
2018-04-29T23:38:55.530Z,54.00
2018-04-29T23:41:23.122Z,54.00
2018-04-29T23:43:50.735Z,54.10
2018-04-29T23:46:18.318Z,54.00
2018-04-29T23:48:46.694Z,54.10
2018-04-29T23:51:15.052Z,54.20
2018-04-29T23:53:42.661Z,54.20
2018-04-29T23:56:10.246Z,54.10
2018-04-29T23:58:37.859Z,54.30
